Sand Point, Michigan
Current Conditions -  °F | °C
As of 12:55 PM on Saturday 20 Dec 2014 (Local Time) from KBAX Reporting Station
Scattered Clouds Scattered Clouds  
Wind Chill: -4°   Ceiling: Unl
Heat Index: -1°   Visibility: 10mi
Dew Point: -5°   Wind: 5mph
Humidity: 74%   Direction: 240°WSW
Pressure: 30.28"   Gusts: NA
Location:  43.8338°N, 83.2671°W
Report Text: KBAX 201755Z AUTO 24004KT 10SM SCT026 M01/M05 A3028 RMK AO2 T10101051 11010 21104
Loading
Personal Weather Stations






























Interactive Weather Map New forecast layout! Learn more

10-Day Weather Forecast

Advertisements
Track Severe Weather on mobile